Airport details for: LWOH (The Former Yugoslav Republic of Macedonia)

Metar

LWOH 261400Z 14005KT 110V170 CAVOK 21/M01 Q1017

General details

ICAO: LWOH
IATA: OHD
Name (city): St Paul The Apostle
Major:
Country: The Former Yugoslav Republic of Macedonia
vACC: vACC FYR Macedonia
Description:
Scenery links:
FS9 scenery: Download
FSX/P3D scenery: Download
XP scenery:
Elevation: 2296 ft.
Transition altitude: 11000 ft.
MSA: 8300 ft.
Latitude: 41.179922
Longitude: 20.742328
LWOH Charts
LWOH Notams
LWOH Online stations

Runways

Number Course Length Elevation Lat Lon ILS ILS freq ILS FAC GP
02 16° 8360ft / 2548 m 2284ft 41.168994 20.73772 108.9 16° 3.2°
20 196° 8360ft / 2548 m 2313ft 41.19085 20.746936 - - 3.0°